Time;durP1;ratioP1;P1;durP2;ratioP2;P2;SDS_P1;SDS_P2;PMS_P1;PMS_P2;Temp;Humidity;BMP_temperature;BMP_pressure;BME280_temperature;BME280_humidity;BME280_pressure;Samples;Min_cycle;Max_cycle;Signal;HPM_P1;HPM_P2
2022/11/28 00:02:12;;;;;;;75.07;15.43;;;7.00;99.90;;;;;;5038240;28;20197;-87
2022/11/28 00:04:38;;;;;;;77.27;16.90;;;6.90;99.90;;;;;;5035681;28;20683;-87
2022/11/28 00:07:04;;;;;;;75.47;13.43;;;7.00;99.90;;;;;;5036158;28;20299;-87
2022/11/28 00:09:30;;;;;;;73.87;14.67;;;6.90;99.90;;;;;;5035353;28;20196;-87
2022/11/28 00:12:06;;;;;;;73.40;14.00;;;6.90;99.90;;;;;;5035296;28;20408;-87
2022/11/28 00:14:41;;;;;;;75.45;14.40;;;6.90;99.90;;;;;;5037033;28;20487;-87
2022/11/28 00:17:06;;;;;;;79.45;15.43;;;6.80;99.90;;;;;;5036811;28;20172;-87
2022/11/28 00:19:35;;;;;;;78.43;18.67;;;6.80;99.90;;;;;;5035701;28;20160;-89
2022/11/28 00:22:04;;;;;;;80.38;13.02;;;6.90;99.90;;;;;;5033858;28;20173;-89
2022/11/28 00:24:29;;;;;;;74.13;14.32;;;6.90;99.90;;;;;;5034445;28;20625;-89
2022/11/28 00:26:55;;;;;;;74.80;13.13;;;6.90;99.90;;;;;;5035699;28;20157;-89
2022/11/28 00:29:21;;;;;;;74.77;13.70;;;6.90;99.90;;;;;;5034557;28;20589;-89
2022/11/28 00:31:47;;;;;;;73.67;14.70;;;6.90;99.90;;;;;;5034331;28;20207;-86
2022/11/28 00:34:13;;;;;;;75.30;14.90;;;6.90;99.90;;;;;;5034578;28;20163;-89
2022/11/28 00:36:41;;;;;;;74.82;13.55;;;6.90;99.90;;;;;;5032602;28;20693;-88
2022/11/28 00:39:07;;;;;;;78.80;15.57;;;6.90;99.90;;;;;;5034245;28;20169;-89
2022/11/28 00:41:35;;;;;;;76.00;14.40;;;7.00;99.90;;;;;;5034014;28;20231;-88
2022/11/28 00:44:00;;;;;;;78.13;14.85;;;6.90;99.90;;;;;;5034484;28;20682;-88
2022/11/28 00:46:29;;;;;;;75.70;18.87;;;6.90;99.90;;;;;;5033601;28;20200;-88
2022/11/28 00:48:57;;;;;;;77.55;14.70;;;6.90;99.90;;;;;;5035584;28;20212;-86
2022/11/28 00:51:26;;;;;;;75.47;14.85;;;6.90;99.90;;;;;;5035395;28;20208;-88
2022/11/28 00:53:53;;;;;;;77.38;17.77;;;6.90;99.90;;;;;;5032514;28;20259;-88
2022/11/28 00:56:38;;;;;;;77.57;16.88;;;6.90;99.90;;;;;;5034064;28;20533;-88
2022/11/28 00:59:06;;;;;;;73.47;12.77;;;6.90;99.90;;;;;;5034167;28;20158;-88
2022/11/28 01:01:35;;;;;;;75.85;12.57;;;6.90;99.90;;;;;;5033105;28;20280;-88
2022/11/28 01:04:07;;;;;;;76.22;15.77;;;6.90;99.90;;;;;;5034038;28;20275;-88
2022/11/28 01:06:34;;;;;;;78.75;15.60;;;6.90;99.90;;;;;;5034302;28;20145;-88
2022/11/28 01:09:06;;;;;;;76.40;13.40;;;6.90;99.90;;;;;;5034607;28;20172;-88
2022/11/28 01:11:32;;;;;;;78.70;13.10;;;6.90;99.90;;;;;;5032418;28;20185;-88
2022/11/28 01:14:00;;;;;;;75.30;13.00;;;6.90;99.90;;;;;;5035671;28;20251;-88
2022/11/28 01:16:27;;;;;;;74.82;12.70;;;6.90;99.90;;;;;;5036137;28;20173;-88
2022/11/28 01:18:55;;;;;;;78.85;17.75;;;6.90;99.90;;;;;;5037129;28;20259;-88
2022/11/28 01:21:25;;;;;;;75.50;22.38;;;6.90;99.90;;;;;;5037461;28;20685;-87
2022/11/28 01:23:51;;;;;;;76.45;13.40;;;7.00;99.90;;;;;;5036230;28;20192;-88
2022/11/28 01:26:20;;;;;;;75.40;13.83;;;6.90;99.90;;;;;;5037972;28;20672;-87
2022/11/28 01:28:49;;;;;;;73.35;13.00;;;6.90;99.90;;;;;;5036437;28;20402;-87
2022/11/28 01:31:17;;;;;;;74.82;14.48;;;6.80;99.90;;;;;;5037753;28;20181;-88
2022/11/28 01:33:43;;;;;;;73.47;11.30;;;6.90;99.90;;;;;;5037732;28;20169;-87
2022/11/28 01:36:10;;;;;;;75.67;13.17;;;6.80;99.90;;;;;;5035867;28;20643;-88
2022/11/28 01:38:36;;;;;;;75.53;18.65;;;6.90;99.90;;;;;;5037426;28;20176;-88
2022/11/28 01:41:03;;;;;;;76.40;11.60;;;6.80;99.90;;;;;;5035888;28;20184;-87
2022/11/28 01:43:33;;;;;;;74.32;14.02;;;6.90;99.90;;;;;;5036193;28;20196;-87
2022/11/28 01:45:59;;;;;;;73.25;15.75;;;6.80;99.90;;;;;;5036682;28;20515;-88
2022/11/28 01:48:35;;;;;;;72.87;12.50;;;6.90;99.90;;;;;;5036156;28;20172;-88
2022/11/28 01:51:06;;;;;;;71.90;12.93;;;6.90;99.90;;;;;;5036895;28;20970;-87
2022/11/28 01:53:39;;;;;;;75.88;17.60;;;6.90;99.90;;;;;;5035591;28;20212;-87
2022/11/28 01:56:14;;;;;;;73.60;13.23;;;6.90;99.90;;;;;;5036877;28;20164;-87
2022/11/28 01:58:49;;;;;;;75.75;14.20;;;6.90;99.90;;;;;;5035737;28;20196;-88
2022/11/28 02:01:18;;;;;;;77.40;12.85;;;6.90;99.90;;;;;;5035349;28;20189;-88
2022/11/28 02:03:47;;;;;;;74.68;13.70;;;6.90;99.90;;;;;;5036588;28;20284;-88
2022/11/28 02:06:16;;;;;;;76.43;13.85;;;6.80;99.90;;;;;;5036558;28;20215;-88
2022/11/28 02:08:41;;;;;;;72.45;12.02;;;6.80;99.90;;;;;;5037017;28;20165;-87
2022/11/28 02:11:45;;;;;;;78.13;13.27;;;6.90;99.90;;;;;;5036973;28;20187;-88
2022/11/28 02:14:39;;;;;;;74.57;13.50;;;6.90;99.90;;;;;;5035709;28;20173;-88
2022/11/28 02:17:25;;;;;;;80.13;14.80;;;6.80;99.90;;;;;;5037316;28;20185;-89
2022/11/28 02:20:21;;;;;;;73.85;12.68;;;6.80;99.90;;;;;;5037330;28;20181;-88
2022/11/28 02:23:23;;;;;;;75.65;11.93;;;6.90;99.90;;;;;;5036204;28;20161;-88
2022/11/28 02:25:48;;;;;;;77.72;13.27;;;6.90;99.90;;;;;;5037165;28;20211;-88
2022/11/28 02:28:45;;;;;;;77.67;14.00;;;6.90;99.90;;;;;;5035710;28;20166;-88
2022/11/28 02:31:17;;;;;;;76.13;12.68;;;6.90;99.90;;;;;;5036809;28;20678;-88
2022/11/28 02:33:59;;;;;;;76.60;13.20;;;6.80;99.90;;;;;;5037065;28;20184;-88
2022/11/28 02:36:36;;;;;;;76.13;16.10;;;6.80;99.90;;;;;;5036811;28;20248;-88
2022/11/28 02:39:15;;;;;;;80.95;12.20;;;6.80;99.90;;;;;;5038081;28;20150;-88
2022/11/28 02:41:55;;;;;;;76.30;12.27;;;6.80;99.90;;;;;;5036890;28;20207;-88
2022/11/28 02:44:41;;;;;;;74.35;13.95;;;6.80;99.90;;;;;;5036428;28;20184;-88
2022/11/28 02:47:23;;;;;;;75.63;13.98;;;6.70;99.90;;;;;;5036014;28;20188;-88
2022/11/28 02:49:53;;;;;;;74.95;14.55;;;6.70;99.90;;;;;;5034079;28;20205;-88
2022/11/28 02:52:25;;;;;;;75.03;14.65;;;6.70;99.90;;;;;;5034822;28;20732;-88
2022/11/28 02:54:52;;;;;;;73.68;12.20;;;6.70;99.90;;;;;;5034608;28;20270;-88
2022/11/28 02:57:18;;;;;;;78.18;12.82;;;6.70;99.90;;;;;;5035451;28;20196;-88
2022/11/28 02:59:48;;;;;;;79.30;13.13;;;6.70;99.90;;;;;;5033980;28;20185;-88
2022/11/28 03:02:17;;;;;;;74.25;14.02;;;6.70;99.90;;;;;;5034946;28;20375;-88
2022/11/28 03:05:07;;;;;;;72.65;14.35;;;6.80;99.90;;;;;;5035953;28;20196;-88
2022/11/28 03:07:45;;;;;;;75.22;15.15;;;6.80;99.90;;;;;;5035658;28;20161;-88
2022/11/28 03:10:48;;;;;;;74.90;16.05;;;6.80;99.90;;;;;;5034301;28;20235;-88
2022/11/28 03:13:52;;;;;;;74.78;18.50;;;6.80;99.90;;;;;;5035582;28;20149;-88
2022/11/28 03:16:29;;;;;;;77.53;13.50;;;6.90;99.90;;;;;;5035524;28;20169;-88
2022/11/28 03:19:18;;;;;;;78.63;12.40;;;6.90;99.90;;;;;;5034009;28;20161;-88
2022/11/28 03:21:49;;;;;;;75.32;11.38;;;6.90;99.90;;;;;;5035108;28;20150;-88
2022/11/28 03:24:24;;;;;;;75.10;12.27;;;7.00;99.90;;;;;;5034707;28;20259;-87
2022/11/28 03:27:40;;;;;;;76.13;12.63;;;6.90;99.90;;;;;;5035416;28;20662;-88
2022/11/28 03:30:29;;;;;;;72.47;10.85;;;6.90;99.90;;;;;;5033802;28;20208;-88
2022/11/28 03:32:56;;;;;;;74.70;10.95;;;6.90;99.90;;;;;;5033654;28;20158;-88
2022/11/28 03:35:28;;;;;;;77.45;12.88;;;6.90;99.90;;;;;;5033194;28;20256;-87
2022/11/28 03:38:01;;;;;;;74.90;12.85;;;6.80;99.90;;;;;;5033281;28;20168;-88
2022/11/28 03:40:35;;;;;;;74.70;11.55;;;6.80;99.90;;;;;;5034898;28;20268;-88
2022/11/28 03:43:07;;;;;;;75.40;12.57;;;6.80;99.90;;;;;;5033464;28;20160;-88
2022/11/28 03:45:45;;;;;;;73.93;11.48;;;6.80;99.90;;;;;;5034867;28;20188;-87
2022/11/28 03:48:20;;;;;;;73.88;12.70;;;6.80;99.90;;;;;;5034939;28;20228;-88
2022/11/28 03:50:59;;;;;;;73.07;12.85;;;6.80;99.90;;;;;;5032960;28;20196;-88
2022/11/28 03:53:33;;;;;;;75.13;15.25;;;6.80;99.90;;;;;;5034427;28;20145;-87
2022/11/28 03:56:14;;;;;;;76.22;14.20;;;6.70;99.90;;;;;;5033136;28;20161;-87
2022/11/28 03:58:50;;;;;;;75.13;12.75;;;6.70;99.90;;;;;;5033125;28;20165;-87
2022/11/28 04:01:31;;;;;;;75.20;12.43;;;6.70;99.90;;;;;;5032771;28;20185;-87
2022/11/28 04:04:11;;;;;;;75.15;12.70;;;6.70;99.90;;;;;;5032792;28;20189;-87
2022/11/28 04:06:46;;;;;;;73.30;12.20;;;6.70;99.90;;;;;;5034167;28;20149;-88
2022/11/28 04:09:18;;;;;;;75.38;13.60;;;6.70;99.90;;;;;;5034185;28;20168;-88
2022/11/28 04:11:52;;;;;;;75.82;13.02;;;6.70;99.90;;;;;;5034929;28;20153;-88
2022/11/28 04:14:33;;;;;;;75.15;15.27;;;6.70;99.90;;;;;;5034445;28;20164;-88
2022/11/28 04:17:09;;;;;;;76.45;13.18;;;6.70;99.90;;;;;;5032730;28;20157;-88
2022/11/28 04:19:41;;;;;;;75.38;14.07;;;6.70;99.90;;;;;;5034183;28;20244;-88
2022/11/28 04:22:26;;;;;;;75.30;15.13;;;6.70;99.90;;;;;;5032696;28;20200;-87
2022/11/28 04:24:59;;;;;;;78.60;13.82;;;6.60;99.90;;;;;;5033845;28;20554;-88
2022/11/28 04:27:36;;;;;;;78.75;18.25;;;6.60;99.90;;;;;;5034125;28;20232;-87
2022/11/28 04:30:04;;;;;;;76.05;14.82;;;6.60;99.90;;;;;;5032306;28;20227;-88
2022/11/28 04:32:33;;;;;;;80.55;15.65;;;6.60;99.90;;;;;;5033431;28;20172;-88
2022/11/28 04:35:05;;;;;;;76.85;14.38;;;6.70;99.90;;;;;;5032462;28;20728;-88
2022/11/28 04:37:33;;;;;;;74.00;14.45;;;6.60;99.90;;;;;;5033638;28;20638;-88
2022/11/28 04:40:00;;;;;;;75.78;13.98;;;6.70;99.90;;;;;;5034622;28;20189;-87
2022/11/28 04:42:32;;;;;;;75.15;15.00;;;6.70;99.90;;;;;;5033246;28;20165;-88
2022/11/28 04:45:10;;;;;;;73.07;15.02;;;6.70;99.90;;;;;;5033408;28;20189;-88
2022/11/28 04:47:36;;;;;;;76.60;16.25;;;6.70;99.90;;;;;;5035102;28;20142;-87
2022/11/28 04:50:02;;;;;;;76.65;13.98;;;6.70;99.90;;;;;;5033427;28;20228;-88
2022/11/28 04:52:37;;;;;;;77.65;14.27;;;6.60;99.90;;;;;;5034215;28;20169;-88
2022/11/28 04:55:21;;;;;;;74.95;13.82;;;6.60;99.90;;;;;;5033984;28;20161;-88
2022/11/28 04:57:51;;;;;;;82.25;16.48;;;6.70;99.90;;;;;;5033576;28;20157;-88
2022/11/28 05:00:19;;;;;;;77.68;13.93;;;6.60;99.90;;;;;;5034666;28;20185;-88
2022/11/28 05:02:49;;;;;;;76.72;13.65;;;6.60;99.90;;;;;;5034947;28;20172;-88
2022/11/28 05:05:22;;;;;;;75.50;13.90;;;6.60;99.90;;;;;;5033475;28;20283;-87
2022/11/28 05:07:48;;;;;;;73.75;12.05;;;6.60;99.90;;;;;;5034911;28;20235;-87
2022/11/28 05:10:15;;;;;;;76.77;14.93;;;6.60;99.90;;;;;;5033703;28;20184;-88
2022/11/28 05:12:40;;;;;;;72.45;12.98;;;6.60;99.90;;;;;;5035605;28;20735;-87
2022/11/28 05:15:24;;;;;;;80.53;14.70;;;6.60;99.90;;;;;;5035624;28;20172;-88
2022/11/28 05:17:50;;;;;;;74.82;13.95;;;6.60;99.90;;;;;;5036076;28;20649;-88
2022/11/28 05:20:16;;;;;;;75.93;13.83;;;6.70;99.90;;;;;;5036060;28;20260;-87
2022/11/28 05:22:41;;;;;;;77.47;11.70;;;6.70;99.90;;;;;;5036941;28;20173;-88
2022/11/28 05:25:10;;;;;;;76.30;13.20;;;6.70;99.90;;;;;;5035186;28;20284;-87
2022/11/28 05:27:36;;;;;;;79.18;12.63;;;6.70;99.90;;;;;;5036396;28;20176;-88
2022/11/28 05:30:03;;;;;;;75.60;12.87;;;6.70;99.90;;;;;;5036926;28;20177;-88
2022/11/28 05:32:30;;;;;;;80.47;13.23;;;6.60;99.90;;;;;;5036727;28;20162;-87
2022/11/28 05:34:58;;;;;;;76.25;12.80;;;6.60;99.90;;;;;;5035366;28;20170;-87
2022/11/28 05:37:24;;;;;;;74.63;12.30;;;6.60;99.90;;;;;;5035581;28;20165;-88
2022/11/28 05:39:50;;;;;;;80.20;15.90;;;6.70;99.90;;;;;;5037087;28;20216;-88
2022/11/28 05:42:16;;;;;;;72.33;12.27;;;6.60;99.90;;;;;;5037060;28;20538;-87
2022/11/28 05:44:42;;;;;;;77.07;14.13;;;6.60;99.90;;;;;;5035611;28;20475;-88
2022/11/28 05:47:11;;;;;;;77.10;14.60;;;6.70;99.90;;;;;;5036727;28;20169;-88
2022/11/28 05:52:18;;;;;;;78.50;15.68;;;6.70;99.90;;;;;;5070408;28;20191;-89
2022/11/28 05:54:46;;;;;;;77.97;14.82;;;6.70;99.90;;;;;;5103761;23;20582;-89
2022/11/28 05:57:21;;;;;;;75.53;16.02;;;6.70;99.90;;;;;;5032715;28;20507;-89
2022/11/28 05:59:47;;;;;;;75.50;14.90;;;6.60;99.90;;;;;;5034543;28;20188;-89
2022/11/28 06:02:50;;;;;;;;;;;;;;;;;;;;;
2022/11/28 06:09:23;;;;;;;77.75;13.68;;;6.60;99.90;;;;;;5035571;28;20546;-90
2022/11/28 06:13:04;;;;;;;;;;;;;;;;;;;;;
2022/11/28 06:29:46;;;;;;;;;;;;;;;;;;;;;
2022/11/28 06:33:06;;;;;;;77.18;16.27;;;6.70;99.90;;;;;;5024701;28;20177;-90
2022/11/28 06:39:32;;;;;;;73.70;15.05;;;6.70;99.90;;;;;;5037114;28;20200;-90
2022/11/28 06:42:22;;;;;;;;;;;;;;;;;;;;;
2022/11/28 06:45:25;;;;;;;75.80;14.55;;;6.70;99.90;;;;;;5032886;28;20605;-90
2022/11/28 06:48:04;;;;;;;;;;;;;;;;;;;;;
2022/11/28 06:51:22;;;;;;;76.68;14.48;;;6.70;99.90;;;;;;5034549;28;20185;-90
2022/11/28 06:54:37;;;;;;;75.68;14.52;;;6.70;99.90;;;;;;5024706;28;20281;-89
2022/11/28 06:57:19;;;;;;;;;;;;;;;;;;;;;
2022/11/28 07:00:27;;;;;;;78.75;15.13;;;6.80;99.90;;;;;;5016366;28;20208;-89
2022/11/28 07:03:03;;;;;;;82.97;15.95;;;6.80;99.90;;;;;;4978134;28;20218;-89
2022/11/28 07:05:54;;;;;;;73.80;13.68;;;6.70;99.90;;;;;;5031538;28;20295;-89
2022/11/28 07:08:41;;;;;;;;;;;;;;;;;;;;;
2022/11/28 07:18:36;;;;;;;76.90;16.88;;;6.70;99.90;;;;;;5036283;28;20153;-90
2022/11/28 07:21:27;;;;;;;76.32;15.38;;;6.70;99.90;;;;;;5034370;28;20199;-90
2022/11/28 07:24:52;;;;;;;78.18;16.40;;;6.70;99.90;;;;;;5035627;28;20184;-90
2022/11/28 07:31:10;;;;;;;78.68;16.00;;;6.70;99.90;;;;;;5013127;28;20271;-90
2022/11/28 07:33:50;;;;;;;;;;;;;;;;;;;;;
2022/11/28 07:36:46;;;;;;;77.55;13.73;;;6.70;99.90;;;;;;5034767;28;20645;-89
2022/11/28 07:39:48;;;;;;;78.43;14.48;;;6.70;99.90;;;;;;5029518;28;20177;-90
2022/11/28 07:42:50;;;;;;;76.50;14.73;;;6.70;99.90;;;;;;5034526;28;20167;-90
2022/11/28 07:48:40;;;;;;;76.18;15.15;;;6.70;99.90;;;;;;5013755;28;20201;-90
2022/11/28 07:55:52;;;;;;;78.63;15.05;;;6.70;99.90;;;;;;4995181;28;20166;-90
2022/11/28 07:58:27;;;;;;;;;;;;;;;;;;;;;
2022/11/28 08:01:40;;;;;;;77.50;13.68;;;6.70;99.90;;;;;;5050701;22;20231;-90
2022/11/28 08:04:13;;;;;;;74.20;13.35;;;6.70;99.90;;;;;;4993784;28;20213;-90
2022/11/28 08:06:49;;;;;;;79.97;13.10;;;6.70;99.90;;;;;;5034512;28;20619;-89
2022/11/28 08:09:28;;;;;;;76.30;13.98;;;6.70;99.90;;;;;;5034849;28;20168;-89
2022/11/28 08:11:57;;;;;;;76.10;14.00;;;6.70;99.90;;;;;;5033786;28;20164;-89
2022/11/28 08:18:18;;;;;;;;;;;;;;;;;;;;;
2022/11/28 08:21:01;;;;;;;76.40;15.10;;;6.80;99.90;;;;;;4992903;28;20742;-89
2022/11/28 08:23:44;;;;;;;76.68;14.98;;;6.70;99.90;;;;;;5034072;28;20181;-89
2022/11/28 08:26:22;;;;;;;76.03;13.18;;;6.80;99.90;;;;;;5033980;28;20519;-89
2022/11/28 08:28:55;;;;;;;75.53;12.73;;;6.80;99.90;;;;;;5033075;28;20168;-89
2022/11/28 08:31:42;;;;;;;76.28;14.68;;;6.90;99.90;;;;;;5033709;28;20564;-89
2022/11/28 08:34:17;;;;;;;76.88;14.23;;;6.90;99.90;;;;;;5032729;28;20157;-89
2022/11/28 08:36:55;;;;;;;76.18;14.43;;;6.80;99.90;;;;;;5032377;28;20203;-89
2022/11/28 08:39:27;;;;;;;76.00;13.95;;;6.80;99.90;;;;;;5032677;28;20185;-89
2022/11/28 08:42:16;;;;;;;76.68;14.07;;;6.80;99.90;;;;;;5032226;28;20176;-89
2022/11/28 08:44:47;;;;;;;74.75;14.88;;;6.80;99.90;;;;;;5034037;28;20650;-89
2022/11/28 08:47:13;;;;;;;73.85;13.30;;;6.90;99.90;;;;;;5033804;28;20193;-89
2022/11/28 08:50:00;;;;;;;75.88;13.13;;;6.90;99.90;;;;;;5032342;28;20565;-89
2022/11/28 08:52:35;;;;;;;73.07;11.90;;;6.80;99.90;;;;;;5032532;28;20638;-89
2022/11/28 08:55:04;;;;;;;76.90;12.50;;;6.80;99.90;;;;;;5032380;28;20175;-89
2022/11/28 08:57:32;;;;;;;77.38;13.88;;;6.80;99.90;;;;;;5033218;28;20248;-89
2022/11/28 09:00:05;;;;;;;78.10;14.60;;;6.90;99.90;;;;;;5032270;28;20540;-89
2022/11/28 09:02:30;;;;;;;76.28;12.73;;;6.90;99.90;;;;;;5032146;28;20204;-89
2022/11/28 09:04:59;;;;;;;74.90;12.80;;;6.90;99.90;;;;;;5032263;28;20205;-89
2022/11/28 09:07:31;;;;;;;77.53;14.70;;;6.90;99.90;;;;;;5032001;28;20251;-89
2022/11/28 09:10:26;;;;;;;74.75;14.15;;;6.90;99.90;;;;;;5033485;28;20746;-89
2022/11/28 09:12:52;;;;;;;74.03;14.13;;;7.00;99.90;;;;;;5014887;28;20716;-89
2022/11/28 09:15:20;;;;;;;75.40;13.73;;;7.00;99.90;;;;;;5029354;28;20264;-89
2022/11/28 09:17:46;;;;;;;75.95;14.25;;;7.00;99.90;;;;;;5034032;28;20165;-89
2022/11/28 09:20:15;;;;;;;75.67;14.60;;;7.00;99.90;;;;;;5032915;28;20661;-89
2022/11/28 09:22:46;;;;;;;78.15;14.32;;;7.10;99.90;;;;;;5032570;28;20180;-89
2022/11/28 09:25:12;;;;;;;73.10;14.23;;;7.00;99.90;;;;;;5032006;28;20237;-89
2022/11/28 09:27:46;;;;;;;76.93;14.30;;;7.00;99.90;;;;;;5032298;28;20652;-89
2022/11/28 09:30:15;;;;;;;76.22;15.00;;;7.10;99.90;;;;;;5033193;28;20185;-89
2022/11/28 09:32:41;;;;;;;77.75;14.15;;;7.10;99.90;;;;;;5033869;28;20651;-89
2022/11/28 09:35:10;;;;;;;81.27;13.67;;;7.10;99.90;;;;;;5036357;28;20169;-89
2022/11/28 09:37:36;;;;;;;80.82;13.70;;;7.10;99.90;;;;;;5036466;28;20172;-89
2022/11/28 09:41:04;;;;;;;;;;;;;;;;;;;;;
2022/11/28 09:43:36;;;;;;;76.50;15.95;;;7.10;99.90;;;;;;5035423;28;20181;-89
2022/11/28 09:46:11;;;;;;;73.80;12.90;;;7.10;99.90;;;;;;5037621;28;20137;-89
2022/11/28 09:51:44;;;;;;;77.85;14.00;;;7.20;99.90;;;;;;5142097;22;20228;-87
2022/11/28 09:54:36;;;;;;;75.95;13.40;;;7.30;99.90;;;;;;5035845;28;20189;-87
2022/11/28 09:57:14;;;;;;;75.32;15.02;;;7.30;99.90;;;;;;5035512;28;20516;-88
2022/11/28 10:00:21;;;;;;;80.13;14.73;;;7.40;99.90;;;;;;5037127;28;20689;-88
2022/11/28 10:03:45;;;;;;;78.60;14.70;;;7.40;99.90;;;;;;5036393;28;20165;-87
2022/11/28 10:06:34;;;;;;;76.55;15.32;;;7.40;99.90;;;;;;5033940;28;20185;-87
2022/11/28 10:09:28;;;;;;;76.60;14.82;;;7.40;99.90;;;;;;5035385;28;20207;-87
2022/11/28 10:12:34;;;;;;;74.72;14.18;;;7.30;99.90;;;;;;5036214;28;20183;-88
2022/11/28 10:15:18;;;;;;;74.90;13.57;;;7.40;99.90;;;;;;5017641;28;20197;-87
2022/11/28 10:18:06;;;;;;;75.85;15.80;;;7.40;99.90;;;;;;5035019;28;20169;-87
2022/11/28 10:20:55;;;;;;;72.55;13.52;;;7.40;99.90;;;;;;5035537;28;20566;-87
2022/11/28 10:23:51;;;;;;;75.18;14.05;;;7.40;99.90;;;;;;5036874;28;20705;-87
2022/11/28 10:26:44;;;;;;;74.18;13.65;;;7.40;99.90;;;;;;5035267;28;20181;-87
2022/11/28 10:29:19;;;;;;;76.80;15.18;;;7.40;99.90;;;;;;5035480;28;20212;-87
2022/11/28 10:31:46;;;;;;;76.03;14.27;;;7.40;99.90;;;;;;5035438;28;20173;-88
2022/11/28 10:34:32;;;;;;;74.68;16.27;;;7.50;99.90;;;;;;5036876;28;20168;-87
2022/11/28 10:37:34;;;;;;;74.95;15.07;;;7.50;99.90;;;;;;5035200;28;20161;-88
2022/11/28 10:40:40;;;;;;;80.60;12.88;;;7.50;99.90;;;;;;5035773;28;20193;-88
2022/11/28 10:43:15;;;;;;;77.30;14.93;;;7.50;99.90;;;;;;5035022;28;20173;-88
2022/11/28 10:46:54;;;;;;;81.53;16.15;;;7.60;99.90;;;;;;5034948;28;20566;-88
2022/11/28 10:49:46;;;;;;;75.88;12.98;;;7.50;99.90;;;;;;5018289;28;20255;-88
2022/11/28 11:02:55;;;;;;;74.90;13.90;;;7.70;99.90;;;;;;4921127;29;20719;-88
2022/11/28 11:05:44;;;;;;;;;;;;;;;;;;;;;
2022/11/28 11:08:56;;;;;;;78.20;14.63;;;7.70;99.90;;;;;;4917716;29;20273;-88
2022/11/28 11:15:37;;;;;;;76.22;16.00;;;7.80;99.90;;;;;;4883895;29;20570;-88
2022/11/28 11:22:23;;;;;;;;;;;;;;;;;;;;;
2022/11/28 11:25:43;;;;;;;75.90;14.70;;;7.70;99.90;;;;;;4965416;28;20214;-88
2022/11/28 11:28:56;;;;;;;76.78;14.32;;;7.80;99.90;;;;;;4958933;29;20598;-89
2022/11/28 11:36:35;;;;;;;75.45;14.85;;;7.90;99.90;;;;;;4882404;29;20273;-89
2022/11/28 11:47:02;;;;;;;;;;;;;;;;;;;;;
2022/11/28 11:52:13;;;;;;;77.75;15.70;;;8.00;99.90;;;;;;5164052;22;20232;-87
2022/11/28 11:54:57;;;;;;;75.80;16.02;;;8.00;99.90;;;;;;5034447;28;20149;-87
2022/11/28 11:57:34;;;;;;;77.70;16.15;;;8.00;99.90;;;;;;5033642;28;20653;-87
2022/11/28 12:00:06;;;;;;;84.13;16.08;;;7.90;99.90;;;;;;5033810;28;20201;-87
2022/11/28 12:03:00;;;;;;;79.97;16.50;;;8.00;99.90;;;;;;5033155;28;20161;-87
2022/11/28 12:05:35;;;;;;;75.78;14.57;;;8.00;99.90;;;;;;5034453;28;20267;-87
2022/11/28 12:08:10;;;;;;;77.38;14.32;;;7.90;99.90;;;;;;5034868;28;20156;-87
2022/11/28 12:10:44;;;;;;;75.97;15.13;;;7.90;99.90;;;;;;5034209;28;20271;-87
2022/11/28 12:13:21;;;;;;;80.20;13.82;;;7.90;99.90;;;;;;5033738;28;20582;-87
2022/11/28 12:16:08;;;;;;;81.03;14.40;;;7.90;99.90;;;;;;5033994;28;20163;-87
2022/11/28 12:19:12;;;;;;;77.20;15.20;;;8.00;99.90;;;;;;5034005;28;20157;-87
2022/11/28 12:22:03;;;;;;;77.13;12.90;;;8.00;99.90;;;;;;5032833;28;20212;-87
2022/11/28 12:24:45;;;;;;;73.95;13.18;;;8.00;99.90;;;;;;5034113;28;20655;-87
2022/11/28 12:27:46;;;;;;;79.25;13.00;;;8.10;99.90;;;;;;5033017;28;20256;-87
2022/11/28 12:30:22;;;;;;;73.40;10.98;;;8.10;99.90;;;;;;5034001;28;20188;-87
2022/11/28 12:33:07;;;;;;;75.88;13.80;;;8.10;99.90;;;;;;5032536;28;20649;-87
2022/11/28 12:36:13;;;;;;;76.95;13.38;;;8.10;99.90;;;;;;5033515;28;20712;-87
2022/11/28 12:39:09;;;;;;;78.75;14.00;;;8.10;99.90;;;;;;5032093;28;20177;-87
2022/11/28 12:41:38;;;;;;;73.82;11.82;;;8.10;99.90;;;;;;5032299;28;20227;-87
2022/11/28 12:44:34;;;;;;;77.63;14.25;;;8.10;99.90;;;;;;5031961;28;20201;-87
2022/11/28 12:47:00;;;;;;;82.18;13.88;;;8.10;99.90;;;;;;5032200;28;20219;-87
2022/11/28 12:49:26;;;;;;;76.47;12.97;;;8.10;99.90;;;;;;5034323;28;20244;-87
2022/11/28 12:51:55;;;;;;;76.27;14.10;;;8.10;99.90;;;;;;5033369;28;20181;-87
2022/11/28 12:54:20;;;;;;;75.55;14.50;;;8.10;99.90;;;;;;5033180;28;20165;-87
2022/11/28 12:57:17;;;;;;;75.20;13.07;;;8.10;99.90;;;;;;5033237;28;20187;-87
2022/11/28 12:59:52;;;;;;;76.57;13.98;;;8.10;99.90;;;;;;5033266;28;20227;-87
2022/11/28 13:02:51;;;;;;;76.40;14.70;;;8.10;99.90;;;;;;5033576;28;20565;-87
2022/11/28 13:05:30;;;;;;;75.95;13.25;;;8.10;99.90;;;;;;5033435;28;20184;-87
2022/11/28 13:08:23;;;;;;;77.97;14.25;;;8.10;99.90;;;;;;5032016;28;20157;-87
2022/11/28 13:11:07;;;;;;;77.65;14.05;;;8.10;99.90;;;;;;5037264;28;20267;-87
2022/11/28 13:13:40;;;;;;;79.50;13.88;;;8.20;99.90;;;;;;5037347;28;20571;-87
2022/11/28 13:16:26;;;;;;;79.65;13.50;;;8.20;99.90;;;;;;5036246;28;20166;-87
2022/11/28 13:19:10;;;;;;;76.05;13.35;;;8.20;99.90;;;;;;5037149;28;20219;-87
2022/11/28 13:21:45;;;;;;;76.53;13.63;;;8.20;99.90;;;;;;5036061;28;20185;-87
2022/11/28 13:24:26;;;;;;;76.88;14.20;;;8.20;99.90;;;;;;5036152;28;20641;-87
2022/11/28 13:27:04;;;;;;;84.03;17.27;;;8.20;99.90;;;;;;5036025;28;20149;-87
2022/11/28 13:29:49;;;;;;;76.50;14.38;;;8.30;99.90;;;;;;5036232;28;20161;-88
2022/11/28 13:32:45;;;;;;;77.00;15.13;;;8.30;99.90;;;;;;5035375;28;20255;-88
2022/11/28 13:35:16;;;;;;;78.13;14.38;;;8.30;99.90;;;;;;5035644;28;20154;-88
2022/11/28 13:38:06;;;;;;;79.45;15.50;;;8.40;99.90;;;;;;5036930;28;20161;-88
2022/11/28 13:41:05;;;;;;;81.22;13.55;;;8.40;99.90;;;;;;5035192;28;20192;-87
2022/11/28 13:43:47;;;;;;;78.25;14.02;;;8.40;99.90;;;;;;5036642;28;20161;-88
2022/11/28 13:46:13;;;;;;;81.03;15.18;;;8.40;99.90;;;;;;5036644;28;20562;-88
2022/11/28 13:48:47;;;;;;;84.72;14.48;;;8.40;99.90;;;;;;5037097;28;20627;-88
2022/11/28 13:51:31;;;;;;;74.38;15.20;;;8.40;99.90;;;;;;5037162;28;20200;-88
2022/11/28 13:54:21;;;;;;;76.10;13.13;;;8.40;99.90;;;;;;5036684;28;20545;-87
2022/11/28 13:57:27;;;;;;;78.45;14.00;;;8.50;99.90;;;;;;5036739;28;20169;-87
2022/11/28 14:00:18;;;;;;;76.65;14.60;;;8.50;99.90;;;;;;5034916;28;20238;-88
2022/11/28 14:02:51;;;;;;;78.85;14.00;;;8.50;99.90;;;;;;5036806;28;20153;-88
2022/11/28 14:05:26;;;;;;;75.53;13.90;;;8.60;99.90;;;;;;5036370;28;20188;-88
2022/11/28 14:07:53;;;;;;;75.93;14.05;;;8.60;99.90;;;;;;5036145;28;20191;-87
2022/11/28 14:10:29;;;;;;;78.20;13.35;;;8.50;99.90;;;;;;5034780;28;20554;-87
2022/11/28 14:12:55;;;;;;;77.65;14.00;;;8.50;99.90;;;;;;5036342;28;20228;-87
2022/11/28 14:15:53;;;;;;;75.40;13.83;;;8.50;99.90;;;;;;5035907;28;20250;-88
2022/11/28 14:18:30;;;;;;;77.55;13.60;;;8.50;99.90;;;;;;5036201;28;20157;-87
2022/11/28 14:21:28;;;;;;;77.20;13.90;;;8.50;99.90;;;;;;5034942;28;20228;-88
2022/11/28 14:24:31;;;;;;;75.95;13.25;;;8.50;99.90;;;;;;5036002;28;20209;-88
2022/11/28 14:27:00;;;;;;;78.90;14.88;;;8.50;99.90;;;;;;5035720;28;20165;-88
2022/11/28 14:29:39;;;;;;;76.72;14.82;;;8.60;99.90;;;;;;5035876;28;20246;-88
2022/11/28 14:32:05;;;;;;;77.05;12.55;;;8.50;99.90;;;;;;5035226;28;20215;-88
2022/11/28 14:34:47;;;;;;;78.05;14.35;;;8.60;99.90;;;;;;5035612;28;20180;-88
2022/11/28 14:37:25;;;;;;;77.80;13.65;;;8.60;99.90;;;;;;5035517;28;20157;-88
2022/11/28 14:39:52;;;;;;;76.30;14.20;;;8.70;99.90;;;;;;5035500;28;20185;-88
2022/11/28 14:42:24;;;;;;;75.10;13.90;;;8.60;99.90;;;;;;5035470;28;20198;-87
2022/11/28 14:44:59;;;;;;;77.13;14.95;;;8.60;99.90;;;;;;5034152;28;20228;-87
2022/11/28 14:47:34;;;;;;;79.95;14.13;;;8.60;99.90;;;;;;5035574;28;20157;-87
2022/11/28 14:50:17;;;;;;;76.43;13.30;;;8.50;99.90;;;;;;5034785;28;20691;-87
2022/11/28 14:52:46;;;;;;;77.68;13.63;;;8.50;99.90;;;;;;5035757;28;20181;-87
2022/11/28 14:55:19;;;;;;;77.70;14.38;;;8.50;99.90;;;;;;5035181;28;20161;-87
2022/11/28 14:58:15;;;;;;;77.93;13.85;;;8.50;99.90;;;;;;5035324;28;20153;-87
2022/11/28 15:00:54;;;;;;;81.00;14.30;;;8.50;99.90;;;;;;5035157;28;20185;-87
2022/11/28 15:03:48;;;;;;;76.72;14.63;;;8.50;99.90;;;;;;5035196;28;20149;-87
2022/11/28 15:06:23;;;;;;;77.35;14.75;;;8.50;99.90;;;;;;5035191;28;20237;-87
2022/11/28 15:09:15;;;;;;;77.00;15.48;;;8.50;99.90;;;;;;5035379;28;20161;-87
2022/11/28 15:11:59;;;;;;;77.28;15.07;;;8.50;99.90;;;;;;5035745;28;20150;-87
2022/11/28 15:14:27;;;;;;;84.28;15.80;;;8.50;99.90;;;;;;5035543;28;20190;-87
2022/11/28 15:17:01;;;;;;;78.82;16.35;;;8.50;99.90;;;;;;5035226;28;20154;-87
2022/11/28 15:19:38;;;;;;;81.35;16.17;;;8.40;99.90;;;;;;5033658;28;20164;-87